Star Mariella — V7KK3 — position and weather

sailwx.info

Track history (hours):
 
Tides and Currents Weather Stations Pressure Air Temp Water Temp Dewpoint Dewpoint Depression Visibility Wind Speed Wind Dir Waves Ship Positions

Star Mariella

Last reported at 2015-Jun-24 22:05 UTC. Time now 2015-Jul-01 19:19 UTC.
Position N 28°42' W 118°51'.

Length 229 m; draft 12.1 m.

Type: Ship. MMSI: 538002632.

Date/timePositionNaut miles runAvg speedWind from/ knotsBaromVisibWave heightAir tempDewpointWater temp
2015-Jun-24 22:05N 28°42' W 118°51'711.2
2015-Jun-24 21:28N 28°47' W 118°56'1111.5
2015-Jun-24 20:33N 28°55' W 119°04'1413.8
2015-Jun-24 19:31N 29°06' W 119°15'1212.7
2015-Jun-24 18:33N 29°15' W 119°24'1111.4
2015-Jun-24 17:33N 29°24' W 119°33'1111.5
2015-Jun-24 16:33N 29°32' W 119°42'1211.6
2015-Jun-24 15:33N 29°41' W 119°50'1211.6
2015-Jun-24 14:33N 29°49' W 119°59'1111.4
2015-Jun-24 13:33N 29°58' W 120°08'1311.2
2015-Jun-24 12:25N 30°08' W 120°18'1010.9
2015-Jun-24 11:33N 30°15' W 120°25'1110.9
2015-Jun-24 10:33N 30°23' W 120°33'1110.9
2015-Jun-24 09:33N 30°31' W 120°42'1111.2
2015-Jun-24 08:33N 30°39' W 120°50'1111.1
2015-Jun-24 07:33N 30°48' W 120°59'1111.0
2015-Jun-24 06:33N 30°56' W 121°08'1111.3
2015-Jun-24 05:33N 31°04' W 121°16'1111.5
2015-Jun-24 04:33N 31°13' W 121°25'1111.4
2015-Jun-24 03:33N 31°21' W 121°34'1111.5
2015-Jun-24 02:33N 31°30' W 121°43'1111.4
2015-Jun-24 01:33N 31°38' W 121°52'1111.4
2015-Jun-24 00:33N 31°46' W 122°02'1111.4
2015-Jun-23 23:33N 31°55' W 122°10'1110.7
2015-Jun-23 22:33N 32°04' W 122°18'1111.0
2015-Jun-23 21:33N 32°14' W 122°22'1110.8
2015-Jun-23 20:33N 32°24' W 122°27'1111.0
2015-Jun-23 19:33N 32°35' W 122°32'511.1
2015-Jun-23 19:06N 32°39' W 122°34'27211.5
2015-Jun-22 19:33N 36°53' W 124°33'1111.3
2015-Jun-22 18:33N 37°03' W 124°38'1111.4
2015-Jun-22 17:33N 37°14' W 124°43'1111.3
2015-Jun-22 16:33N 37°24' W 124°48'1111.3
2015-Jun-22 15:33N 37°35' W 124°53'1111.4
2015-Jun-22 14:33N 37°46' W 124°58'1111.2
2015-Jun-22 13:33N 37°56' W 125°03'1111.3
2015-Jun-22 12:33N 38°07' W 125°09'1111.4
2015-Jun-22 11:33N 38°17' W 125°14'1111.0
2015-Jun-22 10:33N 38°28' W 125°15'1111.5
2015-Jun-22 09:33N 38°40' W 125°15'1211.7
2015-Jun-22 08:33N 38°51' W 125°15'1212.2
2015-Jun-22 07:33N 39°04' W 125°15'1211.9
2015-Jun-22 06:33N 39°16' W 125°15'1211.8
2015-Jun-22 05:33N 39°27' W 125°15'1212.0
2015-Jun-22 04:33N 39°39' W 125°15'22211.7
2015-Jun-21 09:33N 43°21' W 125°15'1212.3
2015-Jun-21 08:33N 43°33' W 125°15'1211.6
2015-Jun-21 07:33N 43°45' W 125°15'1211.6
2015-Jun-21 06:33N 43°57' W 125°15'1311.6
2015-Jun-21 05:28N 44°09' W 125°15'1111.6
2015-Jun-21 04:33N 44°20' W 125°15'2211.2
2015-Jun-21 02:33N 44°42' W 125°15'1111.5
2015-Jun-21 01:33N 44°54' W 125°15'1211.7
2015-Jun-21 00:33N 45°05' W 125°15'1211.8
2015-Jun-20 23:32N 45°17' W 125°15'1111.6
2015-Jun-20 22:33N 45°29' W 125°15'1211.5
2015-Jun-20 21:33N 45°40' W 125°15'1211.6
2015-Jun-20 20:33N 45°52' W 125°15'1211.8
2015-Jun-20 19:33N 46°04' W 125°15'1211.6
2015-Jun-20 18:33N 46°15' W 125°15'1211.7
2015-Jun-20 17:33N 46°27' W 125°15'1211.6
2015-Jun-20 16:33N 46°39' W 125°15'1211.9
2015-Jun-20 15:33N 46°51' W 125°15'1211.9
2015-Jun-20 14:33N 47°02' W 125°15'2512.0
2015-Jun-20 12:28N 47°27' W 125°17'3411.6
2015-Jun-20 09:31N 48°01' W 125°25'1111.3
2015-Jun-20 08:32N 48°11' W 125°18'1111.5
2015-Jun-20 07:33N 48°21' W 125°10'1211.3
2015-Jun-20 06:32N 48°31' W 124°60'1212.4
2015-Jun-20 05:33N 48°30' W 124°41'1211.8
2015-Jun-20 04:33N 48°25' W 124°25'1111.0
2015-Jun-20 03:33N 48°21' W 124°10'1010.3
2015-Jun-20 02:33N 48°18' W 123°55'10 9.9
2015-Jun-20 01:33N 48°16' W 123°41'8 7.8
2015-Jun-20 00:32N 48°17' W 123°29'8 8.5
2015-Jun-19 23:33N 48°23' W 123°21'7 7.1
2015-Jun-19 22:33N 48°27' W 123°12'1211.9
2015-Jun-19 21:33N 48°39' W 123°15'1111.2
2015-Jun-19 20:33N 48°47' W 123°02'1111.0
2015-Jun-19 19:33N 48°56' W 123°11'1212.0
2015-Jun-19 18:33N 49°05' W 123°23'1212.4
2015-Jun-19 17:33N 49°17' W 123°19'10 9.6
2015-Jun-19 16:33N 49°18' W 123°05'1 0.9
2015-Jun-19 15:33N 49°18' W 123°03'0 0.0
2015-Jun-19 14:33N 49°18' W 123°03'0 0.0
2015-Jun-19 13:33N 49°18' W 123°03'0 0.0
2015-Jun-19 12:33N 49°18' W 123°03'0 0.0
2015-Jun-19 11:33N 49°18' W 123°03'0 0.0
2015-Jun-19 10:33N 49°18' W 123°03'0 0.0
2015-Jun-19 09:33N 49°18' W 123°03'0 0.0
2015-Jun-19 08:33N 49°18' W 123°03'0 0.0
2015-Jun-19 07:33N 49°18' W 123°03'0 0.0
2015-Jun-19 06:33N 49°18' W 123°03'0 0.0
2015-Jun-19 05:33N 49°18' W 123°03'0 0.0
2015-Jun-19 04:33N 49°18' W 123°03'0 0.0
2015-Jun-19 03:33N 49°18' W 123°03'0 0.0
2015-Jun-19 02:24N 49°18' W 123°03'0 0.0
2015-Jun-19 01:30N 49°18' W 123°03'0 0.0
2015-Jun-19 00:33N 49°18' W 123°03'0 0.0
2015-Jun-18 23:30N 49°18' W 123°03'0 0.0
2015-Jun-18 22:33N 49°18' W 123°03'0 0.0
2015-Jun-18 21:33N 49°18' W 123°03'0 0.0
2015-Jun-18 20:33N 49°18' W 123°03'0 0.0
2015-Jun-18 19:33N 49°18' W 123°03'0 0.0
2015-Jun-18 18:33N 49°18' W 123°03'0 0.0
2015-Jun-18 17:33N 49°18' W 123°03'0 0.0
2015-Jun-18 16:30N 49°18' W 123°03'0 0.0
2015-Jun-18 15:33N 49°18' W 123°03'0 0.0
2015-Jun-18 14:30N 49°18' W 123°03'0 0.0
2015-Jun-18 13:33N 49°18' W 123°03'0 0.0
2015-Jun-18 12:33N 49°18' W 123°03'0 0.0
2015-Jun-18 11:33N 49°18' W 123°03'0 0.0
2015-Jun-18 10:33N 49°18' W 123°03'0 0.0
2015-Jun-18 09:33N 49°18' W 123°03'0 0.0
2015-Jun-18 08:33N 49°18' W 123°03'0 0.0
2015-Jun-18 07:33N 49°18' W 123°03'0 0.0
2015-Jun-18 06:33N 49°18' W 123°03'0 0.0
2015-Jun-18 05:33N 49°18' W 123°03'0 0.0
2015-Jun-18 04:33N 49°18' W 123°03'0 0.0
2015-Jun-18 03:33N 49°18' W 123°03'0 0.0
2015-Jun-18 02:33N 49°18' W 123°03'0 0.0
2015-Jun-18 01:33N 49°18' W 123°03'0 0.0
2015-Jun-18 00:33N 49°18' W 123°03'0 0.0
2015-Jun-17 23:33N 49°18' W 123°03'0 0.0
2015-Jun-17 22:33N 49°18' W 123°03'0 0.0
2015-Jun-17 21:33N 49°18' W 123°03'0 0.0
2015-Jun-17 20:33N 49°18' W 123°03'0 0.0
2015-Jun-17 19:33N 49°18' W 123°03'0 0.0
2015-Jun-17 18:33N 49°18' W 123°03'0 0.0
2015-Jun-17 17:33N 49°18' W 123°03'0 0.0
2015-Jun-17 16:33N 49°18' W 123°03'0 0.0
2015-Jun-17 15:33N 49°18' W 123°03'0 0.0
2015-Jun-17 14:33N 49°18' W 123°03'0 0.0
2015-Jun-17 13:33N 49°18' W 123°03'0 0.0
2015-Jun-17 12:33N 49°18' W 123°03'0 0.0
2015-Jun-17 11:33N 49°18' W 123°03'0 0.0
2015-Jun-17 10:33N 49°18' W 123°03'0 0.0
2015-Jun-17 09:33N 49°18' W 123°03'0 0.0
2015-Jun-17 08:33N 49°18' W 123°03'0 0.0
2015-Jun-17 07:33N 49°18' W 123°03'0 0.0
2015-Jun-17 06:33N 49°18' W 123°03'0 0.0
2015-Jun-17 05:33N 49°18' W 123°03'0 0.0
2015-Jun-17 04:33N 49°18' W 123°03'0 0.0
2015-Jun-17 03:33N 49°18' W 123°03'0 0.0
2015-Jun-17 02:33N 49°18' W 123°03'0 0.0
2015-Jun-17 01:33N 49°18' W 123°03'0 0.0
2015-Jun-17 00:33N 49°18' W 123°03'0 0.0
2015-Jun-16 23:33N 49°18' W 123°03'0 0.0
2015-Jun-16 22:33N 49°18' W 123°03'0 0.0
2015-Jun-16 21:33N 49°18' W 123°03'0 0.0
2015-Jun-16 20:33N 49°18' W 123°03'0 0.0
2015-Jun-16 19:33N 49°18' W 123°03'0 0.0
2015-Jun-16 18:33N 49°18' W 123°03'0 0.0
2015-Jun-16 17:33N 49°18' W 123°03'0 0.0
2015-Jun-16 16:33N 49°18' W 123°03'0 0.0
2015-Jun-16 15:33N 49°18' W 123°03'0 0.0
2015-Jun-16 14:33N 49°18' W 123°03'0 0.0
2015-Jun-16 13:30N 49°18' W 123°03'0 0.5
2015-Jun-16 12:33N 49°18' W 123°04'9 8.6
2015-Jun-16 11:33N 49°18' W 123°17'1312.7
2015-Jun-16 10:33N 49°05' W 123°20'1413.5
2015-Jun-16 09:34N 48°55' W 123°06'1110.8
2015-Jun-16 08:33N 48°44' W 123°06'1010.2
2015-Jun-16 07:33N 48°35' W 123°13'1211.7
2015-Jun-16 06:34N 48°24' W 123°14'1010.5
2015-Jun-16 05:33N 48°17' W 123°26'9 9.5
2015-Jun-16 04:33N 48°13' W 123°39'1211.9
2015-Jun-16 03:33N 48°14' W 123°57'1211.8
2015-Jun-16 02:33N 48°19' W 124°13'1212.1
2015-Jun-16 01:33N 48°24' W 124°30'1211.6
2015-Jun-16 00:33N 48°29' W 124°46'1111.4
2015-Jun-15 23:33N 48°28' W 125°03'1312.7
2015-Jun-15 22:33N 48°29' W 125°22'1212.4
2015-Jun-15 21:33N 48°31' W 125°40'1212.2
2015-Jun-15 20:33N 48°33' W 125°59'1212.0
2015-Jun-15 19:33N 48°34' W 126°17'1312.4
2015-Jun-15 18:31N 48°35' W 126°36'1212.1
2015-Jun-15 17:30N 48°35' W 126°55'1511.9
2015-Jun-15 16:14N 48°36' W 127°17'3311.1
2015-Jun-15 13:18N 48°38' W 128°07'1012.2
2015-Jun-15 12:27N 48°42' W 128°21'  
Track history (hours):
 
Tides and Currents Weather Stations Pressure Air Temp Water Temp Dewpoint Dewpoint Depression Visibility Wind Speed Wind Dir Waves Ship Positions

Star Mariella

Last reported at 2015-Jun-24 22:05 UTC. Time now 2015-Jul-01 19:19 UTC.
Position N 28°42' W 118°51'.

Length 229 m; draft 12.1 m.

Type: Ship. MMSI: 538002632.

Date/timePositionNaut miles runAvg speedWind from/ knotsBaromVisibWave heightAir tempDewpointWater temp
2015-Jun-24 22:05N 28°42' W 118°51'711.2
2015-Jun-24 21:28N 28°47' W 118°56'1111.5
2015-Jun-24 20:33N 28°55' W 119°04'1413.8
2015-Jun-24 19:31N 29°06' W 119°15'1212.7
2015-Jun-24 18:33N 29°15' W 119°24'1111.4
2015-Jun-24 17:33N 29°24' W 119°33'1111.5
2015-Jun-24 16:33N 29°32' W 119°42'1211.6
2015-Jun-24 15:33N 29°41' W 119°50'1211.6
2015-Jun-24 14:33N 29°49' W 119°59'1111.4
2015-Jun-24 13:33N 29°58' W 120°08'1311.2
2015-Jun-24 12:25N 30°08' W 120°18'1010.9
2015-Jun-24 11:33N 30°15' W 120°25'1110.9
2015-Jun-24 10:33N 30°23' W 120°33'1110.9
2015-Jun-24 09:33N 30°31' W 120°42'1111.2
2015-Jun-24 08:33N 30°39' W 120°50'1111.1
2015-Jun-24 07:33N 30°48' W 120°59'1111.0
2015-Jun-24 06:33N 30°56' W 121°08'1111.3
2015-Jun-24 05:33N 31°04' W 121°16'1111.5
2015-Jun-24 04:33N 31°13' W 121°25'1111.4
2015-Jun-24 03:33N 31°21' W 121°34'1111.5
2015-Jun-24 02:33N 31°30' W 121°43'1111.4
2015-Jun-24 01:33N 31°38' W 121°52'1111.4
2015-Jun-24 00:33N 31°46' W 122°02'1111.4
2015-Jun-23 23:33N 31°55' W 122°10'1110.7
2015-Jun-23 22:33N 32°04' W 122°18'1111.0
2015-Jun-23 21:33N 32°14' W 122°22'1110.8
2015-Jun-23 20:33N 32°24' W 122°27'1111.0
2015-Jun-23 19:33N 32°35' W 122°32'511.1
2015-Jun-23 19:06N 32°39' W 122°34'27211.5
2015-Jun-22 19:33N 36°53' W 124°33'1111.3
2015-Jun-22 18:33N 37°03' W 124°38'1111.4
2015-Jun-22 17:33N 37°14' W 124°43'1111.3
2015-Jun-22 16:33N 37°24' W 124°48'1111.3
2015-Jun-22 15:33N 37°35' W 124°53'1111.4
2015-Jun-22 14:33N 37°46' W 124°58'1111.2
2015-Jun-22 13:33N 37°56' W 125°03'1111.3
2015-Jun-22 12:33N 38°07' W 125°09'1111.4
2015-Jun-22 11:33N 38°17' W 125°14'1111.0
2015-Jun-22 10:33N 38°28' W 125°15'1111.5
2015-Jun-22 09:33N 38°40' W 125°15'1211.7
2015-Jun-22 08:33N 38°51' W 125°15'1212.2
2015-Jun-22 07:33N 39°04' W 125°15'1211.9
2015-Jun-22 06:33N 39°16' W 125°15'1211.8
2015-Jun-22 05:33N 39°27' W 125°15'1212.0
2015-Jun-22 04:33N 39°39' W 125°15'22211.7
2015-Jun-21 09:33N 43°21' W 125°15'1212.3
2015-Jun-21 08:33N 43°33' W 125°15'1211.6
2015-Jun-21 07:33N 43°45' W 125°15'1211.6
2015-Jun-21 06:33N 43°57' W 125°15'1311.6
2015-Jun-21 05:28N 44°09' W 125°15'1111.6
2015-Jun-21 04:33N 44°20' W 125°15'2211.2
2015-Jun-21 02:33N 44°42' W 125°15'1111.5
2015-Jun-21 01:33N 44°54' W 125°15'1211.7
2015-Jun-21 00:33N 45°05' W 125°15'1211.8
2015-Jun-20 23:32N 45°17' W 125°15'1111.6
2015-Jun-20 22:33N 45°29' W 125°15'1211.5
2015-Jun-20 21:33N 45°40' W 125°15'1211.6
2015-Jun-20 20:33N 45°52' W 125°15'1211.8
2015-Jun-20 19:33N 46°04' W 125°15'1211.6
2015-Jun-20 18:33N 46°15' W 125°15'1211.7
2015-Jun-20 17:33N 46°27' W 125°15'1211.6
2015-Jun-20 16:33N 46°39' W 125°15'1211.9
2015-Jun-20 15:33N 46°51' W 125°15'1211.9
2015-Jun-20 14:33N 47°02' W 125°15'2512.0
2015-Jun-20 12:28N 47°27' W 125°17'3411.6
2015-Jun-20 09:31N 48°01' W 125°25'1111.3
2015-Jun-20 08:32N 48°11' W 125°18'1111.5
2015-Jun-20 07:33N 48°21' W 125°10'1211.3
2015-Jun-20 06:32N 48°31' W 124°60'1212.4
2015-Jun-20 05:33N 48°30' W 124°41'1211.8
2015-Jun-20 04:33N 48°25' W 124°25'1111.0
2015-Jun-20 03:33N 48°21' W 124°10'1010.3
2015-Jun-20 02:33N 48°18' W 123°55'10 9.9
2015-Jun-20 01:33N 48°16' W 123°41'8 7.8
2015-Jun-20 00:32N 48°17' W 123°29'8 8.5
2015-Jun-19 23:33N 48°23' W 123°21'7 7.1
2015-Jun-19 22:33N 48°27' W 123°12'1211.9
2015-Jun-19 21:33N 48°39' W 123°15'1111.2
2015-Jun-19 20:33N 48°47' W 123°02'1111.0
2015-Jun-19 19:33N 48°56' W 123°11'1212.0
2015-Jun-19 18:33N 49°05' W 123°23'1212.4
2015-Jun-19 17:33N 49°17' W 123°19'10 9.6
2015-Jun-19 16:33N 49°18' W 123°05'1 0.9
2015-Jun-19 15:33N 49°18' W 123°03'0 0.0
2015-Jun-19 14:33N 49°18' W 123°03'0 0.0
2015-Jun-19 13:33N 49°18' W 123°03'0 0.0
2015-Jun-19 12:33N 49°18' W 123°03'0 0.0
2015-Jun-19 11:33N 49°18' W 123°03'0 0.0
2015-Jun-19 10:33N 49°18' W 123°03'0 0.0
2015-Jun-19 09:33N 49°18' W 123°03'0 0.0
2015-Jun-19 08:33N 49°18' W 123°03'0 0.0
2015-Jun-19 07:33N 49°18' W 123°03'0 0.0
2015-Jun-19 06:33N 49°18' W 123°03'0 0.0
2015-Jun-19 05:33N 49°18' W 123°03'0 0.0
2015-Jun-19 04:33N 49°18' W 123°03'0 0.0
2015-Jun-19 03:33N 49°18' W 123°03'0 0.0
2015-Jun-19 02:24N 49°18' W 123°03'0 0.0
2015-Jun-19 01:30N 49°18' W 123°03'0 0.0
2015-Jun-19 00:33N 49°18' W 123°03'0 0.0
2015-Jun-18 23:30N 49°18' W 123°03'0 0.0
2015-Jun-18 22:33N 49°18' W 123°03'0 0.0
2015-Jun-18 21:33N 49°18' W 123°03'0 0.0
2015-Jun-18 20:33N 49°18' W 123°03'0 0.0
2015-Jun-18 19:33N 49°18' W 123°03'0 0.0
2015-Jun-18 18:33N 49°18' W 123°03'0 0.0
2015-Jun-18 17:33N 49°18' W 123°03'0 0.0
2015-Jun-18 16:30N 49°18' W 123°03'0 0.0
2015-Jun-18 15:33N 49°18' W 123°03'0 0.0
2015-Jun-18 14:30N 49°18' W 123°03'0 0.0
2015-Jun-18 13:33N 49°18' W 123°03'0 0.0
2015-Jun-18 12:33N 49°18' W 123°03'0 0.0
2015-Jun-18 11:33N 49°18' W 123°03'0 0.0
2015-Jun-18 10:33N 49°18' W 123°03'0 0.0
2015-Jun-18 09:33N 49°18' W 123°03'0 0.0
2015-Jun-18 08:33N 49°18' W 123°03'0 0.0
2015-Jun-18 07:33N 49°18' W 123°03'0 0.0
2015-Jun-18 06:33N 49°18' W 123°03'0 0.0
2015-Jun-18 05:33N 49°18' W 123°03'0 0.0
2015-Jun-18 04:33N 49°18' W 123°03'0 0.0
2015-Jun-18 03:33N 49°18' W 123°03'0 0.0
2015-Jun-18 02:33N 49°18' W 123°03'0 0.0
2015-Jun-18 01:33N 49°18' W 123°03'0 0.0
2015-Jun-18 00:33N 49°18' W 123°03'0 0.0
2015-Jun-17 23:33N 49°18' W 123°03'0 0.0
2015-Jun-17 22:33N 49°18' W 123°03'0 0.0
2015-Jun-17 21:33N 49°18' W 123°03'0 0.0
2015-Jun-17 20:33N 49°18' W 123°03'0 0.0
2015-Jun-17 19:33N 49°18' W 123°03'0 0.0
2015-Jun-17 18:33N 49°18' W 123°03'0 0.0
2015-Jun-17 17:33N 49°18' W 123°03'0 0.0
2015-Jun-17 16:33N 49°18' W 123°03'0 0.0
2015-Jun-17 15:33N 49°18' W 123°03'0 0.0
2015-Jun-17 14:33N 49°18' W 123°03'0 0.0
2015-Jun-17 13:33N 49°18' W 123°03'0 0.0
2015-Jun-17 12:33N 49°18' W 123°03'0 0.0
2015-Jun-17 11:33N 49°18' W 123°03'0 0.0
2015-Jun-17 10:33N 49°18' W 123°03'0 0.0
2015-Jun-17 09:33N 49°18' W 123°03'0 0.0
2015-Jun-17 08:33N 49°18' W 123°03'0 0.0
2015-Jun-17 07:33N 49°18' W 123°03'0 0.0
2015-Jun-17 06:33N 49°18' W 123°03'0 0.0
2015-Jun-17 05:33N 49°18' W 123°03'0 0.0
2015-Jun-17 04:33N 49°18' W 123°03'0 0.0
2015-Jun-17 03:33N 49°18' W 123°03'0 0.0
2015-Jun-17 02:33N 49°18' W 123°03'0 0.0
2015-Jun-17 01:33N 49°18' W 123°03'0 0.0
2015-Jun-17 00:33N 49°18' W 123°03'0 0.0
2015-Jun-16 23:33N 49°18' W 123°03'0 0.0
2015-Jun-16 22:33N 49°18' W 123°03'0 0.0
2015-Jun-16 21:33N 49°18' W 123°03'0 0.0
2015-Jun-16 20:33N 49°18' W 123°03'0 0.0
2015-Jun-16 19:33N 49°18' W 123°03'0 0.0
2015-Jun-16 18:33N 49°18' W 123°03'0 0.0
2015-Jun-16 17:33N 49°18' W 123°03'0 0.0
2015-Jun-16 16:33N 49°18' W 123°03'0 0.0
2015-Jun-16 15:33N 49°18' W 123°03'0 0.0
2015-Jun-16 14:33N 49°18' W 123°03'0 0.0
2015-Jun-16 13:30N 49°18' W 123°03'0 0.5
2015-Jun-16 12:33N 49°18' W 123°04'9 8.6
2015-Jun-16 11:33N 49°18' W 123°17'1312.7
2015-Jun-16 10:33N 49°05' W 123°20'1413.5
2015-Jun-16 09:34N 48°55' W 123°06'1110.8
2015-Jun-16 08:33N 48°44' W 123°06'1010.2
2015-Jun-16 07:33N 48°35' W 123°13'1211.7
2015-Jun-16 06:34N 48°24' W 123°14'1010.5
2015-Jun-16 05:33N 48°17' W 123°26'9 9.5
2015-Jun-16 04:33N 48°13' W 123°39'1211.9
2015-Jun-16 03:33N 48°14' W 123°57'1211.8
2015-Jun-16 02:33N 48°19' W 124°13'1212.1
2015-Jun-16 01:33N 48°24' W 124°30'1211.6
2015-Jun-16 00:33N 48°29' W 124°46'1111.4
2015-Jun-15 23:33N 48°28' W 125°03'1312.7
2015-Jun-15 22:33N 48°29' W 125°22'1212.4
2015-Jun-15 21:33N 48°31' W 125°40'1212.2
2015-Jun-15 20:33N 48°33' W 125°59'1212.0
2015-Jun-15 19:33N 48°34' W 126°17'1312.4
2015-Jun-15 18:31N 48°35' W 126°36'1212.1
2015-Jun-15 17:30N 48°35' W 126°55'1511.9
2015-Jun-15 16:14N 48°36' W 127°17'3311.1
2015-Jun-15 13:18N 48°38' W 128°07'1012.2
2015-Jun-15 12:27N 48°42' W 128°21'  

Dump ship's entire track history